Terminal Aerodrome Forecast
Issued by NWS

Home | Current Version | Previous Version | Text Only | Print | Product List | Glossary On
Versions: 1 2 3 4 5 6 7 8 9 10 11 12 13 14 15 16 17 18 19 20 21 22 23 24 25 26 27 28 29 30 31 32 33 34 35 36
266
FTAK31 PANC 210526
TAFAHO
TAF
PAHO 210526Z 2106/2206 06005KT P6SM -RA SCT025 OVC060
     FM211000 04010G16KT 6SM -RA OVC025
     FM211500 VRB06KT P6SM -SHRA SCT015 OVC035=

USA.gov is the U.S. government's official web portal to all federal, state and local government web resources and services.